Weather reports worldwide

Advertisment
Sutton bonington, United Kingdom (99025): temperature & dewpoint: 11.12.2017 23:00:00 - 17.12.2017 23:00:00 (GMT)Sutton bonington, United Kingdom (99025): temperature -20cm & temperature -100cm: 11.12.2017 23:00:00 - 17.12.2017 23:00:00 (GMT)Sutton bonington, United Kingdom (99025): wind speed & gusts: 11.12.2017 23:00:00 - 17.12.2017 23:00:00 (GMT)Sutton bonington, United Kingdom (99025): wind direction: 11.12.2017 23:00:00 - 17.12.2017 23:00:00 (GMT)Sutton bonington, United Kingdom (99025): precipitation: 11.12.2017 23:00:00 - 17.12.2017 23:00:00 (GMT)
Date & Time tt [°C] td [°C] tt -20cm [°C] tt -100cm [°C] ff [km/h] ff [kn] fx [km/h] fx [kn] dd rr [mm]
17.12.2017 23:00:00 4,9 2,8 - - 11 6 - - WNW 0,0
17.12.2017 22:00:00 5,6 3,5 - - 16 9 - - NW 0,0
17.12.2017 21:00:00 6,9 3,9 - - 15 8 - - WNW 0,0
17.12.2017 20:00:00 8,5 5,7 - - 21 11 - - WNW 0,0
17.12.2017 19:00:00 9,3 8,0 - - 15 8 - - W 0,0
17.12.2017 18:00:00 9,1 8,3 - - 13 7 - - WSW 0,0
17.12.2017 17:00:00 8,6 7,7 - - 13 7 - - WSW 0,0
17.12.2017 16:00:00 7,8 6,8 - - 15 8 - - SW 0,0
17.12.2017 15:00:00 7,4 6,5 - - 18 10 - - SW 0,0
17.12.2017 14:00:00 7,0 6,2 - - 15 8 - - SSW 0,0
17.12.2017 13:00:00 6,1 5,4 - - 15 8 - - SSW 0,2
17.12.2017 12:00:00 5,1 4,5 - - 11 6 - - SSW 1,0
17.12.2017 11:00:00 3,8 3,4 - - 8 4 - - S 0,6
17.12.2017 10:00:00 2,4 1,8 - - 4 2 - - SSE 0,0
17.12.2017 09:00:00 1,8 1,7 4,2 6,0 11 6 - - SSE 0,2
17.12.2017 08:00:00 0,4 0,3 - - 8 4 - - S 0,0
17.12.2017 07:00:00 -0,5 -0,6 - - 8 4 - - SE 0,0
17.12.2017 06:00:00 -1,0 -1,1 - - 4 2 - - SSW 0,0
17.12.2017 05:00:00 -1,3 -1,3 - - 8 4 - - S 0,0
17.12.2017 04:00:00 -0,6 -0,6 - - 5 3 - - SW 0,0
17.12.2017 03:00:00 -0,5 -0,5 - - 5 3 - - W 0,0
17.12.2017 02:00:00 -1,1 -1,2 - - 8 4 - - WSW 0,0
17.12.2017 01:00:00 -0,6 -0,7 - - 8 4 - - WSW 0,0
17.12.2017 00:00:00 -1,7 -1,9 - - 5 3 - - WSW 0,0
16.12.2017 23:00:00 -1,5 -1,9 - - 8 4 - - WSW 0,0
16.12.2017 22:00:00 -0,8 -1,3 - - 2 1 - - SW 0,0
16.12.2017 21:00:00 0,2 -0,3 - - 5 3 - - WNW 0,0
16.12.2017 20:00:00 1,3 0,6 - - 11 6 - - W 0,0
16.12.2017 19:00:00 1,5 0,9 - - 9 5 - - WNW 0,0
16.12.2017 18:00:00 1,6 1,0 - - 9 5 - - WNW 0,0
16.12.2017 17:00:00 1,9 1,2 - - 9 5 - - WNW 0,0
16.12.2017 16:00:00 3,0 2,0 - - 11 6 - - W 0,0
16.12.2017 15:00:00 3,2 2,1 - - 13 7 - - WNW 0,0
16.12.2017 14:00:00 3,2 2,0 - - 11 6 - - W 0,0
16.12.2017 13:00:00 2,8 1,6 - - 15 8 - - W 0,0
16.12.2017 12:00:00 2,6 1,3 - - 13 7 - - W 0,0
16.12.2017 11:00:00 1,9 0,0 - - 5 3 - - SW 0,0
16.12.2017 10:00:00 1,5 -0,5 - - 8 4 - - SW 0,0
16.12.2017 09:00:00 0,7 -1,2 4,7 6,2 8 4 - - W 0,0
16.12.2017 08:00:00 -0,3 -1,8 - - 8 4 - - WNW 0,0
16.12.2017 07:00:00 -1,3 -2,7 - - 5 3 - - W 0,0
16.12.2017 06:00:00 -1,0 -2,1 - - 8 4 - - WNW 0,0
16.12.2017 05:00:00 -0,6 -2,0 - - 8 4 - - WSW 0,0
16.12.2017 04:00:00 -0,4 -1,9 - - 5 3 - - SW 0,0
16.12.2017 03:00:00 0,2 -2,1 - - 4 2 - - W 0,0
16.12.2017 02:00:00 0,6 -2,0 - - 4 2 - - NE 0,0
16.12.2017 01:00:00 0,4 -1,7 - - 5 3 - - W 0,0
16.12.2017 00:00:00 1,1 -1,1 - - 13 7 - - WNW 0,0
15.12.2017 23:00:00 1,3 -0,9 - - 11 6 - - WNW 0,0
15.12.2017 22:00:00 1,7 -0,7 - - 11 6 - - W 0,0
15.12.2017 21:00:00 1,7 -0,7 - - 9 5 - - W 0,0
15.12.2017 20:00:00 2,6 -0,3 - - 9 5 - - W 0,0
15.12.2017 19:00:00 3,3 0,1 - - 16 9 - - NW 0,0
15.12.2017 18:00:00 - - - - - - - - - 0,0
15.12.2017 17:00:00 4,2 1,2 - - 18 10 - - NW 0,0
15.12.2017 16:00:00 5,1 1,8 - - 21 11 - - NNW 0,0
15.12.2017 15:00:00 5,7 2,3 - - 22 12 - - NNW 0,0
15.12.2017 14:00:00 6,0 1,8 - - 24 13 - - N 0,0
15.12.2017 13:00:00 6,1 1,5 - - 22 12 - - NNW 0,0
15.12.2017 12:00:00 5,1 1,0 - - 21 11 - - NW 0,0
15.12.2017 11:00:00 4,4 0,5 - - 22 12 - - NW 0,0
15.12.2017 10:00:00 3,9 0,8 - - 16 9 - - NW 0,0
15.12.2017 09:00:00 2,6 0,3 4,9 6,4 15 8 - - NW 0,0
15.12.2017 08:00:00 3,2 0,8 - - 24 13 - - NNW 0,0
15.12.2017 07:00:00 2,9 0,7 - - 21 11 - - NNW 0,0
15.12.2017 06:00:00 2,3 0,7 - - 13 7 - - NNW 0,0
15.12.2017 05:00:00 2,1 1,3 - - 9 5 - - NNW 0,0
15.12.2017 04:00:00 2,1 1,6 - - 8 4 - - WNW 0,0
15.12.2017 03:00:00 2,7 1,7 - - 8 4 - - W 0,0
15.12.2017 02:00:00 3,5 2,2 - - 13 7 - - W 0,2
15.12.2017 01:00:00 3,0 1,9 - - 9 5 - - W 0,2
15.12.2017 00:00:00 2,9 1,6 - - 16 9 - - WSW 0,6
14.12.2017 23:00:00 3,2 1,8 - - 13 7 - - WSW 0,2
14.12.2017 22:00:00 2,9 1,6 - - 11 6 - - WSW 0,0
14.12.2017 21:00:00 3,1 1,7 - - 9 5 - - WSW 0,0
14.12.2017 20:00:00 3,3 1,8 - - 13 7 - - WSW 0,0
14.12.2017 19:00:00 4,0 1,8 - - 13 7 - - SW 0,2
14.12.2017 18:00:00 4,2 1,4 - - 11 6 - - SSW 0,0
14.12.2017 17:00:00 4,0 1,0 - - 13 7 - - SW 0,0
14.12.2017 16:00:00 4,2 0,9 - - 13 7 - - SSW 0,0
14.12.2017 15:00:00 5,2 1,1 - - 13 7 - - SSW 0,0
14.12.2017 14:00:00 5,6 1,3 - - 13 7 - - SW 0,0
14.12.2017 13:00:00 4,9 1,3 - - 13 7 - - SW 0,0
14.12.2017 12:00:00 4,8 1,2 - - 15 8 - - SW 0,0
14.12.2017 11:00:00 4,3 1,0 - - 16 9 - - SW 0,0
14.12.2017 10:00:00 3,6 0,6 - - 16 9 - - SW 0,0
14.12.2017 09:00:00 2,9 0,2 5,0 6,5 15 8 - - SW 0,0
14.12.2017 08:00:00 2,4 0,4 - - 11 6 - - SSW 0,0
14.12.2017 07:00:00 3,1 0,6 - - 15 8 - - SW 0,0
14.12.2017 06:00:00 3,3 0,8 - - 15 8 - - WSW 0,0
14.12.2017 05:00:00 3,6 1,4 - - 16 9 - - W 0,0
14.12.2017 04:00:00 3,2 1,3 - - 21 11 46 25 WSW 0,0
14.12.2017 03:00:00 3,0 1,1 - - 21 11 - - WSW 0,0
14.12.2017 02:00:00 2,1 0,3 - - 15 8 - - SW 0,0
14.12.2017 01:00:00 2,5 0,2 - - 18 10 - - W 0,0
14.12.2017 00:00:00 2,1 0,0 - - 22 12 48 26 W 0,0
13.12.2017 23:00:00 1,9 0,5 - - 26 14 - - W 1,0
13.12.2017 22:00:00 1,0 0,6 - - 13 7 - - WSW 1,6
13.12.2017 21:00:00 0,6 0,2 - - 9 5 - - WSW 2,2
13.12.2017 20:00:00 3,8 0,8 - - 18 10 - - SW 0,0
13.12.2017 19:00:00 3,1 0,3 - - 15 8 - - SW 0,0
13.12.2017 18:00:00 3,3 0,6 - - 16 9 - - WSW 0,0
13.12.2017 17:00:00 3,8 1,3 - - 13 7 - - WSW 0,0
13.12.2017 16:00:00 4,8 1,8 - - 18 10 - - W 0,0
13.12.2017 15:00:00 5,3 2,3 - - 21 11 57 31 W 0,2
13.12.2017 14:00:00 6,7 5,1 - - 26 14 48 26 WSW 1,6
13.12.2017 13:00:00 7,1 5,2 - - 21 11 - - SSW 0,0
13.12.2017 12:00:00 6,5 4,3 - - 16 9 - - SSW 0,0
13.12.2017 11:00:00 5,9 3,8 - - 18 10 - - SW 0,0
13.12.2017 10:00:00 5,2 3,6 - - 18 10 - - SW 0,0
13.12.2017 09:00:00 5,3 3,6 4,9 6,7 15 8 - - SSW 0,0
13.12.2017 08:00:00 5,1 3,6 - - 16 9 - - SW 0,0
13.12.2017 07:00:00 4,6 3,3 - - 15 8 - - SW 0,0
13.12.2017 06:00:00 4,0 3,1 - - 8 4 - - SW 0,0
13.12.2017 05:00:00 3,0 2,7 - - 5 3 - - WSW 0,0
13.12.2017 04:00:00 3,2 2,9 - - 5 3 - - SW 0,0
13.12.2017 03:00:00 3,6 3,2 - - 4 2 - - WSW 0,0
13.12.2017 02:00:00 3,9 3,5 - - 13 7 - - SW 0,0
13.12.2017 01:00:00 3,8 3,3 - - 13 7 - - SSW 0,2
13.12.2017 00:00:00 4,2 3,3 - - 18 10 - - SSW 0,2
12.12.2017 23:00:00 3,9 2,7 - - 18 10 - - S 0,2
12.12.2017 22:00:00 3,4 2,0 - - 15 8 - - S 0,4
12.12.2017 21:00:00 2,8 1,5 - - 15 8 - - S 1,2
12.12.2017 20:00:00 3,2 1,5 - - 15 8 - - SSW 0,0
12.12.2017 19:00:00 2,8 0,7 - - 13 7 - - SSW 0,0
12.12.2017 18:00:00 1,9 -0,4 - - 11 6 - - S 0,0
12.12.2017 17:00:00 1,7 -0,2 - - 9 5 - - SSW 0,0
12.12.2017 16:00:00 1,4 -1,2 - - 11 6 - - SSW 0,0
12.12.2017 15:00:00 1,4 -1,0 - - 8 4 - - S 0,0
12.12.2017 14:00:00 1,3 -1,4 - - 4 2 - - SW 0,0
12.12.2017 13:00:00 0,6 -1,9 - - 4 2 - - S -
12.12.2017 12:00:00 0,3 -1,8 - - 8 4 - - SSW 0,0
12.12.2017 11:00:00 -1,2 -3,1 - - 5 3 - - SSW 0,0
12.12.2017 10:00:00 -3,0 -3,9 - - 8 4 - - SW 0,0
12.12.2017 09:00:00 -5,6 -6,8 5,0 7,0 5 3 - - SSW 0,0
12.12.2017 08:00:00 -5,0 -5,6 - - 5 3 - - SSW 0,0
12.12.2017 07:00:00 -5,1 -6,1 - - 5 3 - - SSW 0,0
12.12.2017 06:00:00 -4,7 -5,6 - - 4 2 - - SSW 0,0
12.12.2017 05:00:00 -4,6 -5,6 - - 5 3 - - WSW 0,0
12.12.2017 04:00:00 -2,9 -4,2 - - 9 5 - - W 0,0
12.12.2017 03:00:00 -3,1 -4,5 - - 5 3 - - WNW 0,0
12.12.2017 02:00:00 -3,7 -4,9 - - 4 2 - - WNW 0,0
12.12.2017 01:00:00 -3,1 -4,9 - - 5 3 - - WNW 0,0
12.12.2017 00:00:00 -3,8 -5,2 - - 8 4 - - W 0,0
11.12.2017 23:00:00 -3,3 -5,5 - - 4 2 - - NW 0,0

tt = temperature
td = dewpoint
tt -20cm = temperature -20cm
tt -100cm = temperature -100cm
ff = wind speed
fx = gusts
dd = wind direction
rr = precipitation

Next stations

  • TOP-25 (most viewed):